LIPZ/VCE METAR and TAF weather

Enter ICAO airport designator
Station Type Date Time Source
LIPZ METAR 2021/04/13 07:20 UTC NOAA

LIPZ 130720Z 05009KT 9999 -RA BKN035 07/05 Q1018 NOSIG


Station Type Date Time Source
LIPZ Decoded METAR 2021/04/13 07:20 UTC NOAA

Venezia / Tessera, Italy (LIPZ) 45-30N 012-20E 6M
Apr 13, 2021 - 03:20 AM EDT / 2021.04.13 0720 UTC
Wind: from the NE (050 degrees) at 10 MPH (9 KT):0
Visibility: greater than 7 mile(s):0
Sky conditions: mostly cloudy
Weather: light rain
Temperature: 44 F (7 C)
Dew Point: 41 F (5 C)
Relative Humidity: 87%
Pressure (altimeter): 30.06 in. Hg (1018 hPa)
ob: LIPZ 130720Z 05009KT 9999 -RA BKN035 07/05 Q1018 NOSIG
cycle: 7

Station Type Date Time Source
LIPZ TAF 2021/04/13 06:21 UTC NOAA

TAF LIPZ 130500Z 1306/1412 03020G30KT 9999 BKN025
BECMG 1306/1308 03014KT
BECMG 1308/1310 24006KT

Example: see airport list